createdAt,value
2023-05-10T00:00:08.624Z,7.38
2023-05-10T00:00:40.289Z,7.55
2023-05-10T00:01:11.648Z,7.82
2023-05-10T00:01:43.065Z,8.30
2023-05-10T00:02:14.483Z,10.02
2023-05-10T00:02:45.894Z,5.80
2023-05-10T00:03:17.405Z,7.97
2023-05-10T00:03:48.974Z,6.38
2023-05-10T00:04:20.469Z,6.95
2023-05-10T00:04:51.918Z,7.18
2023-05-10T00:05:23.304Z,6.95
2023-05-10T00:05:54.692Z,8.85
2023-05-10T00:06:26.186Z,7.22
2023-05-10T00:06:57.548Z,8.10
2023-05-10T00:07:28.926Z,5.95
2023-05-10T00:08:00.317Z,7.07
2023-05-10T00:08:31.701Z,8.88
2023-05-10T00:09:03.122Z,7.25
2023-05-10T00:09:34.495Z,6.35
2023-05-10T00:10:06.075Z,6.75
2023-05-10T00:10:37.533Z,7.75
2023-05-10T00:11:08.854Z,8.17
2023-05-10T00:11:40.223Z,6.93
2023-05-10T00:12:11.626Z,7.60
2023-05-10T00:12:43.201Z,6.63
2023-05-10T00:13:14.827Z,9.23
2023-05-10T00:13:46.261Z,7.53
2023-05-10T00:14:17.755Z,7.05
2023-05-10T00:14:49.086Z,9.07
2023-05-10T00:15:20.473Z,8.63
2023-05-10T00:15:51.838Z,10.05
2023-05-10T00:16:23.265Z,8.55
2023-05-10T00:16:54.697Z,9.98
2023-05-10T00:17:26.128Z,6.07
2023-05-10T00:17:57.753Z,9.15
2023-05-10T00:18:29.183Z,6.28
2023-05-10T00:19:00.588Z,5.03
2023-05-10T00:19:31.952Z,6.10
2023-05-10T00:20:03.475Z,5.63
2023-05-10T00:20:34.902Z,4.80
2023-05-10T00:21:06.449Z,8.55
2023-05-10T00:21:37.789Z,7.00
2023-05-10T00:22:09.171Z,8.00
2023-05-10T00:22:40.603Z,8.57
2023-05-10T00:23:11.972Z,11.70
2023-05-10T00:23:43.367Z,5.70
2023-05-10T00:24:14.798Z,7.95
2023-05-10T00:24:46.206Z,6.35
2023-05-10T00:25:17.671Z,8.10
2023-05-10T00:25:49.084Z,4.68
2023-05-10T00:26:20.472Z,9.27
2023-05-10T00:26:51.841Z,8.13
2023-05-10T00:27:23.255Z,8.10
2023-05-10T00:27:54.680Z,6.93
2023-05-10T00:28:28.029Z,8.10
2023-05-10T00:28:59.407Z,6.50
2023-05-10T00:29:30.814Z,5.70
2023-05-10T00:30:02.215Z,5.47
2023-05-10T00:30:33.573Z,5.35
2023-05-10T00:31:04.935Z,6.47
2023-05-10T00:31:36.354Z,8.45
2023-05-10T00:32:07.780Z,5.75
2023-05-10T00:32:39.181Z,5.80
2023-05-10T00:33:10.596Z,7.05
2023-05-10T00:33:41.968Z,6.57
2023-05-10T00:34:13.365Z,7.03
2023-05-10T00:34:44.741Z,7.40
2023-05-10T00:35:16.610Z,6.55
2023-05-10T00:35:47.978Z,7.88
2023-05-10T00:36:19.434Z,4.80
2023-05-10T00:36:50.839Z,6.53
2023-05-10T00:37:22.202Z,7.93
2023-05-10T00:37:53.571Z,9.63
2023-05-10T00:38:24.964Z,5.75
2023-05-10T00:38:56.332Z,7.20
2023-05-10T00:39:27.686Z,8.10
2023-05-10T00:39:59.149Z,6.72
2023-05-10T00:40:30.699Z,7.45
2023-05-10T00:41:02.078Z,7.53
2023-05-10T00:41:33.448Z,7.82
2023-05-10T00:42:04.847Z,7.13
2023-05-10T00:42:36.199Z,6.15
2023-05-10T00:43:07.538Z,8.38
2023-05-10T00:43:38.936Z,6.82
2023-05-10T00:44:10.360Z,7.95
2023-05-10T00:44:41.758Z,11.10
2023-05-10T00:45:13.147Z,7.38
2023-05-10T00:45:44.697Z,7.40
2023-05-10T00:46:16.671Z,7.68
2023-05-10T00:46:48.676Z,6.33
2023-05-10T00:47:20.114Z,6.25
2023-05-10T00:47:52.095Z,7.97
2023-05-10T00:48:23.582Z,7.68
2023-05-10T00:48:54.974Z,7.27
2023-05-10T00:49:26.513Z,6.60
2023-05-10T00:49:58.170Z,7.43
2023-05-10T00:50:29.595Z,8.77
2023-05-10T00:51:02.189Z,9.65
2023-05-10T00:51:33.582Z,7.47
2023-05-10T00:52:05.049Z,6.78
2023-05-10T00:52:36.565Z,7.23
2023-05-10T00:53:08.268Z,8.85
2023-05-10T00:53:39.709Z,10.25
2023-05-10T00:54:12.629Z,9.70
2023-05-10T00:54:44.042Z,9.93
2023-05-10T00:55:15.412Z,6.47
2023-05-10T00:55:46.870Z,6.40
2023-05-10T00:56:18.431Z,8.80
2023-05-10T00:56:49.898Z,8.90
2023-05-10T00:57:21.961Z,6.32
2023-05-10T00:57:54.133Z,7.45
2023-05-10T00:58:25.563Z,7.32
2023-05-10T00:58:57.087Z,7.32
2023-05-10T00:59:29.415Z,5.30
2023-05-10T01:00:00.811Z,8.55
2023-05-10T01:00:33.265Z,7.28
2023-05-10T01:01:05.442Z,8.57
2023-05-10T01:01:37.108Z,7.80
2023-05-10T01:02:08.586Z,6.40
2023-05-10T01:02:40.272Z,6.95
2023-05-10T01:03:11.898Z,7.07
2023-05-10T01:03:43.576Z,7.60
2023-05-10T01:04:15.486Z,9.38
2023-05-10T01:04:46.954Z,10.05
2023-05-10T01:05:18.442Z,9.15
2023-05-10T01:05:50.228Z,8.45
2023-05-10T01:06:21.719Z,8.40
2023-05-10T01:06:53.769Z,16.42
2023-05-10T01:07:25.158Z,8.25
2023-05-10T01:07:57.212Z,10.65
2023-05-10T01:08:28.877Z,10.40
2023-05-10T01:09:00.325Z,7.05
2023-05-10T01:09:31.923Z,8.20
2023-05-10T01:10:03.316Z,7.28
2023-05-10T01:10:34.732Z,9.95
2023-05-10T01:11:06.274Z,9.07
2023-05-10T01:11:38.381Z,6.68
2023-05-10T01:12:09.827Z,6.30
2023-05-10T01:12:41.979Z,7.70
2023-05-10T01:13:13.615Z,6.47
2023-05-10T01:13:47.905Z,7.35
2023-05-10T01:14:19.698Z,7.05
2023-05-10T01:14:51.145Z,8.85
2023-05-10T01:15:22.815Z,7.60
2023-05-10T01:15:54.801Z,8.55
2023-05-10T01:16:27.611Z,11.52
2023-05-10T01:16:59.176Z,4.93
2023-05-10T01:17:31.091Z,9.85
2023-05-10T01:18:02.902Z,8.35
2023-05-10T01:18:35.848Z,6.47
2023-05-10T01:19:11.800Z,9.68
2023-05-10T01:19:43.273Z,9.38
2023-05-10T01:20:15.347Z,8.60
2023-05-10T01:20:49.141Z,7.82
2023-05-10T01:21:32.307Z,6.93
2023-05-10T01:22:22.461Z,6.97
2023-05-10T01:22:59.766Z,9.15
2023-05-10T01:23:44.865Z,6.50
2023-05-10T01:24:16.190Z,7.35
2023-05-10T01:24:47.545Z,8.68
2023-05-10T01:25:18.906Z,9.80
2023-05-10T01:26:08.893Z,12.50
2023-05-10T01:26:58.749Z,9.95
2023-05-10T01:27:48.622Z,8.77
2023-05-10T01:28:38.403Z,7.53
2023-05-10T01:29:28.254Z,8.20
2023-05-10T01:30:15.316Z,7.78
2023-05-10T01:31:09.479Z,7.65
2023-05-10T01:32:02.209Z,8.15
2023-05-10T01:32:33.591Z,8.23
2023-05-10T01:33:25.609Z,6.78
2023-05-10T01:34:00.125Z,7.00
2023-05-10T01:34:36.068Z,8.63
2023-05-10T01:35:11.555Z,8.48
2023-05-10T01:35:47.180Z,7.93
2023-05-10T01:36:21.552Z,7.78
2023-05-10T01:36:56.462Z,7.43
2023-05-10T01:37:46.011Z,8.18
2023-05-10T01:38:25.789Z,9.20
2023-05-10T01:39:03.110Z,8.10
2023-05-10T01:39:45.538Z,7.28
2023-05-10T01:40:27.297Z,8.45
2023-05-10T01:41:13.773Z,5.25
2023-05-10T01:41:54.222Z,5.63
2023-05-10T01:42:27.537Z,7.25
2023-05-10T01:43:03.499Z,6.60
2023-05-10T01:43:40.138Z,7.97
2023-05-10T01:44:11.467Z,6.88
2023-05-10T01:45:01.074Z,7.43
2023-05-10T01:45:34.826Z,8.35
2023-05-10T01:46:11.599Z,8.48
2023-05-10T01:46:43.182Z,10.15
2023-05-10T01:47:44.029Z,9.50
2023-05-10T01:48:15.853Z,7.55
2023-05-10T01:48:52.817Z,7.05
2023-05-10T01:49:25.179Z,6.10
2023-05-10T01:49:57.027Z,9.18
2023-05-10T01:50:30.070Z,7.53
2023-05-10T01:51:01.593Z,8.18
2023-05-10T01:51:42.891Z,10.45
2023-05-10T01:52:16.578Z,7.68
2023-05-10T01:52:55.731Z,5.65
2023-05-10T01:53:27.792Z,6.70
2023-05-10T01:54:01.401Z,7.03
2023-05-10T01:54:33.878Z,8.20
2023-05-10T01:55:10.007Z,6.95
2023-05-10T01:55:47.265Z,9.10
2023-05-10T01:56:20.787Z,8.50
2023-05-10T01:57:01.086Z,5.97
2023-05-10T01:57:36.889Z,7.38
2023-05-10T01:58:10.024Z,6.63
2023-05-10T01:58:44.163Z,10.60
2023-05-10T01:59:18.090Z,7.15
2023-05-10T01:59:51.131Z,9.38
2023-05-10T02:00:22.951Z,6.90
2023-05-10T02:00:54.832Z,9.05
2023-05-10T02:01:27.615Z,8.07
2023-05-10T02:02:00.155Z,7.80
2023-05-10T02:02:34.147Z,6.47
2023-05-10T02:03:07.423Z,7.47
2023-05-10T02:03:39.468Z,8.68
2023-05-10T02:04:12.030Z,10.40
2023-05-10T02:04:44.561Z,6.57
2023-05-10T02:05:17.084Z,7.38
2023-05-10T02:05:49.763Z,9.13
2023-05-10T02:06:22.102Z,8.50
2023-05-10T02:06:55.219Z,7.18
2023-05-10T02:07:27.938Z,8.23
2023-05-10T02:07:59.849Z,9.15
2023-05-10T02:08:31.711Z,7.85
2023-05-10T02:09:03.989Z,8.90
2023-05-10T02:09:35.845Z,7.18
2023-05-10T02:10:08.004Z,7.95
2023-05-10T02:10:40.138Z,7.97
2023-05-10T02:11:13.446Z,6.47
2023-05-10T02:11:45.104Z,5.90
2023-05-10T02:12:16.972Z,6.80
2023-05-10T02:12:49.451Z,8.90
2023-05-10T02:13:21.054Z,8.30
2023-05-10T02:13:52.554Z,10.88
2023-05-10T02:14:24.628Z,8.15
2023-05-10T02:14:56.092Z,9.33
2023-05-10T02:15:28.276Z,8.77
2023-05-10T02:16:00.164Z,9.85
2023-05-10T02:16:31.832Z,8.10
2023-05-10T02:17:04.668Z,10.18
2023-05-10T02:17:36.524Z,6.57
2023-05-10T02:18:08.739Z,8.90
2023-05-10T02:18:41.057Z,7.25
2023-05-10T02:19:12.991Z,8.57
2023-05-10T02:19:45.638Z,6.13
2023-05-10T02:20:17.746Z,9.65
2023-05-10T02:20:49.522Z,9.07
2023-05-10T02:21:22.209Z,7.18
2023-05-10T02:21:53.902Z,6.72
2023-05-10T02:22:26.591Z,9.20
2023-05-10T02:22:58.450Z,6.85
2023-05-10T02:23:31.329Z,7.53
2023-05-10T02:24:04.196Z,8.00
2023-05-10T02:24:36.165Z,7.53
2023-05-10T02:25:07.765Z,7.63
2023-05-10T02:25:39.556Z,8.65
2023-05-10T02:26:11.350Z,9.32
2023-05-10T02:26:43.273Z,6.90
2023-05-10T02:27:15.119Z,8.40
2023-05-10T02:27:47.658Z,8.55
2023-05-10T02:28:19.148Z,10.18
2023-05-10T02:28:51.142Z,10.15
2023-05-10T02:29:24.223Z,8.43
2023-05-10T02:29:55.903Z,8.35
2023-05-10T02:30:27.779Z,8.15
2023-05-10T02:30:59.286Z,7.60
2023-05-10T02:31:32.861Z,7.97
2023-05-10T02:32:04.465Z,11.85
2023-05-10T02:32:36.260Z,9.40
2023-05-10T02:33:07.962Z,10.07
2023-05-10T02:33:39.861Z,8.68
2023-05-10T02:34:11.493Z,8.30
2023-05-10T02:34:43.369Z,6.72
2023-05-10T02:35:15.212Z,13.95
2023-05-10T02:35:47.444Z,8.10
2023-05-10T02:36:19.908Z,7.60
2023-05-10T02:36:52.012Z,13.27
2023-05-10T02:37:23.575Z,7.55
2023-05-10T02:37:55.298Z,8.63
2023-05-10T02:38:27.298Z,9.48
2023-05-10T02:39:00.726Z,11.20
2023-05-10T02:39:32.640Z,11.40
2023-05-10T02:40:05.328Z,10.07
2023-05-10T02:40:37.685Z,9.55
2023-05-10T02:41:09.368Z,9.13
2023-05-10T02:41:45.069Z,10.77
2023-05-10T02:42:20.933Z,12.15
2023-05-10T02:42:53.246Z,9.60
2023-05-10T02:43:25.354Z,15.50
2023-05-10T02:43:57.933Z,12.83
2023-05-10T02:44:30.347Z,9.55
2023-05-10T02:45:02.753Z,12.73
2023-05-10T02:45:35.388Z,14.80
2023-05-10T02:46:06.879Z,13.63
2023-05-10T02:46:38.481Z,11.95
2023-05-10T02:47:10.096Z,16.67
2023-05-10T02:47:41.773Z,16.40
2023-05-10T02:48:13.333Z,12.80
2023-05-10T02:48:44.838Z,13.40
2023-05-10T02:49:16.633Z,12.90
2023-05-10T02:49:48.141Z,11.63
2023-05-10T02:50:19.873Z,13.02
2023-05-10T02:50:52.553Z,15.50
2023-05-10T02:51:26.271Z,8.98
2023-05-10T02:52:00.949Z,13.57
2023-05-10T02:52:37.809Z,13.20
2023-05-10T02:53:15.993Z,14.40
2023-05-10T02:53:47.914Z,10.50
2023-05-10T02:54:25.403Z,11.55
2023-05-10T02:54:59.482Z,11.40
2023-05-10T02:55:37.819Z,10.13
2023-05-10T02:56:14.481Z,13.57
2023-05-10T02:56:48.472Z,8.57
2023-05-10T02:57:23.237Z,7.93
2023-05-10T02:58:01.627Z,13.00
2023-05-10T02:58:33.119Z,13.13
2023-05-10T02:59:04.513Z,9.15
2023-05-10T02:59:35.962Z,9.85
2023-05-10T03:00:07.644Z,11.68
2023-05-10T03:00:39.047Z,14.80
2023-05-10T03:01:10.444Z,14.32
2023-05-10T03:01:42.005Z,24.83
2023-05-10T03:02:13.677Z,11.98
2023-05-10T03:02:45.070Z,18.70
2023-05-10T03:03:16.535Z,11.23
2023-05-10T03:03:47.884Z,15.18
2023-05-10T03:04:19.526Z,13.60
2023-05-10T03:04:51.071Z,12.77
2023-05-10T03:05:22.552Z,11.88
2023-05-10T03:05:53.877Z,9.73
2023-05-10T03:06:25.284Z,10.43
2023-05-10T03:06:56.915Z,11.55
2023-05-10T03:07:28.560Z,15.00
2023-05-10T03:08:00.272Z,10.00
2023-05-10T03:08:31.946Z,9.55
2023-05-10T03:09:03.508Z,7.97
2023-05-10T03:09:35.163Z,10.48
2023-05-10T03:10:06.823Z,10.82
2023-05-10T03:10:42.358Z,9.88
2023-05-10T03:11:32.654Z,10.82
2023-05-10T03:12:14.021Z,7.70
2023-05-10T03:12:51.682Z,7.05
2023-05-10T03:13:30.054Z,10.30
2023-05-10T03:14:04.438Z,8.10
2023-05-10T03:14:43.335Z,11.73
2023-05-10T03:15:18.955Z,6.28
2023-05-10T03:15:53.349Z,10.80
2023-05-10T03:16:42.055Z,8.70
2023-05-10T03:17:26.206Z,12.90
2023-05-10T03:18:16.339Z,18.63
2023-05-10T03:18:59.941Z,17.65
2023-05-10T03:19:33.298Z,17.67
2023-05-10T03:20:07.413Z,7.65
2023-05-10T03:20:48.034Z,9.68
2023-05-10T03:21:19.643Z,8.55
2023-05-10T03:21:52.585Z,11.05
2023-05-10T03:22:41.834Z,11.55
2023-05-10T03:23:16.981Z,11.80
2023-05-10T03:24:07.984Z,16.60
2023-05-10T03:24:40.436Z,18.60
2023-05-10T03:25:12.568Z,17.77
2023-05-10T03:25:44.175Z,21.05
2023-05-10T03:26:18.389Z,13.93
2023-05-10T03:26:50.438Z,13.20
2023-05-10T03:27:23.265Z,14.10
2023-05-10T03:27:55.055Z,14.97
2023-05-10T03:28:26.876Z,15.55
2023-05-10T03:28:58.493Z,13.50
2023-05-10T03:29:30.368Z,9.52
2023-05-10T03:30:03.065Z,10.18
2023-05-10T03:30:34.786Z,8.68
2023-05-10T03:31:07.021Z,9.52
2023-05-10T03:31:39.193Z,12.45
2023-05-10T03:32:10.674Z,7.40
2023-05-10T03:32:42.044Z,9.68
2023-05-10T03:33:13.458Z,10.40
2023-05-10T03:33:51.130Z,6.18
2023-05-10T03:34:26.286Z,9.02
2023-05-10T03:34:57.646Z,7.03
2023-05-10T03:35:29.058Z,14.43
2023-05-10T03:36:00.454Z,11.50
2023-05-10T03:36:31.797Z,11.85
2023-05-10T03:37:03.163Z,8.98
2023-05-10T03:37:34.526Z,9.50
2023-05-10T03:38:05.914Z,9.50
2023-05-10T03:38:37.277Z,7.53
2023-05-10T03:39:08.645Z,9.43
2023-05-10T03:39:40.053Z,7.15
2023-05-10T03:40:11.564Z,7.93
2023-05-10T03:40:42.926Z,7.68
2023-05-10T03:41:14.321Z,7.53
2023-05-10T03:41:45.726Z,11.95
2023-05-10T03:42:17.108Z,11.30
2023-05-10T03:42:48.498Z,8.00
2023-05-10T03:43:19.881Z,10.27
2023-05-10T03:43:51.263Z,11.23
2023-05-10T03:44:23.171Z,12.38
2023-05-10T03:44:54.685Z,6.68
2023-05-10T03:45:26.091Z,10.25
2023-05-10T03:45:57.486Z,7.30
2023-05-10T03:46:28.870Z,9.30
2023-05-10T03:47:00.358Z,10.00
2023-05-10T03:47:31.837Z,7.47
2023-05-10T03:48:03.309Z,9.95
2023-05-10T03:48:34.754Z,9.60
2023-05-10T03:49:06.105Z,8.18
2023-05-10T03:49:37.519Z,8.70
2023-05-10T03:50:08.985Z,8.57
2023-05-10T03:50:40.555Z,9.60
2023-05-10T03:51:11.877Z,12.02
2023-05-10T03:51:43.204Z,9.17
2023-05-10T03:52:14.548Z,8.35
2023-05-10T03:52:46.104Z,7.78
2023-05-10T03:53:17.479Z,9.43
2023-05-10T03:53:48.820Z,10.68
2023-05-10T03:54:20.166Z,10.13
2023-05-10T03:54:51.582Z,7.22
2023-05-10T03:55:22.952Z,7.57
2023-05-10T03:55:54.302Z,9.40
2023-05-10T03:56:25.646Z,8.50
2023-05-10T03:56:56.989Z,10.68
2023-05-10T03:57:28.392Z,29.83
2023-05-10T03:57:59.749Z,13.70
2023-05-10T03:58:31.107Z,12.30
2023-05-10T03:59:02.467Z,11.18
2023-05-10T03:59:33.851Z,12.45
2023-05-10T04:00:05.469Z,26.83
2023-05-10T04:00:36.837Z,14.48
2023-05-10T04:01:08.202Z,14.95
2023-05-10T04:01:39.582Z,12.43
2023-05-10T04:02:11.026Z,11.40
2023-05-10T04:02:43.159Z,13.18
2023-05-10T04:03:14.980Z,14.43
2023-05-10T04:03:46.500Z,8.88
2023-05-10T04:04:18.025Z,8.70
2023-05-10T04:04:49.428Z,8.97
2023-05-10T04:05:20.864Z,9.45
2023-05-10T04:05:59.374Z,13.77
2023-05-10T04:06:30.843Z,9.02
2023-05-10T04:07:02.217Z,13.15
2023-05-10T04:07:33.596Z,13.82
2023-05-10T04:08:05.428Z,8.75
2023-05-10T04:08:36.767Z,7.93
2023-05-10T04:09:08.151Z,10.00
2023-05-10T04:09:39.503Z,9.48
2023-05-10T04:10:11.413Z,6.82
2023-05-10T04:10:42.844Z,8.95
2023-05-10T04:11:14.171Z,9.85
2023-05-10T04:11:45.541Z,8.68
2023-05-10T04:12:16.880Z,8.05
2023-05-10T04:12:48.302Z,10.80
2023-05-10T04:13:19.799Z,11.88
2023-05-10T04:13:51.266Z,9.27
2023-05-10T04:14:22.655Z,7.60
2023-05-10T04:14:54.030Z,11.68
2023-05-10T04:15:25.390Z,10.60
2023-05-10T04:15:56.768Z,8.65
2023-05-10T04:16:28.213Z,10.07
2023-05-10T04:16:59.703Z,15.70
2023-05-10T04:17:31.114Z,15.07
2023-05-10T04:18:02.518Z,11.52
2023-05-10T04:18:33.900Z,9.75
2023-05-10T04:19:05.270Z,12.13
2023-05-10T04:19:36.613Z,10.50
2023-05-10T04:20:08.307Z,7.10
2023-05-10T04:20:39.754Z,10.02
2023-05-10T04:21:14.475Z,11.25
2023-05-10T04:21:45.813Z,13.73
2023-05-10T04:22:17.205Z,12.10
2023-05-10T04:22:48.549Z,9.20
2023-05-10T04:23:19.909Z,11.68
2023-05-10T04:23:51.280Z,6.88
2023-05-10T04:24:22.756Z,17.77
2023-05-10T04:24:54.159Z,16.20
2023-05-10T04:25:25.570Z,13.32
2023-05-10T04:26:00.563Z,12.25
2023-05-10T04:26:31.946Z,9.65
2023-05-10T04:27:03.365Z,12.65
2023-05-10T04:27:34.735Z,10.38
2023-05-10T04:28:06.118Z,8.32
2023-05-10T04:28:37.467Z,7.97
2023-05-10T04:29:08.870Z,8.27
2023-05-10T04:29:40.248Z,8.48
2023-05-10T04:30:11.802Z,10.88
2023-05-10T04:30:43.136Z,9.02
2023-05-10T04:31:14.618Z,10.63
2023-05-10T04:31:46.070Z,11.15
2023-05-10T04:32:17.494Z,16.52
2023-05-10T04:32:48.938Z,19.17
2023-05-10T04:33:20.357Z,15.82
2023-05-10T04:33:51.732Z,18.85
2023-05-10T04:34:23.127Z,19.48
2023-05-10T04:34:54.486Z,12.55
2023-05-10T04:35:25.866Z,14.10
2023-05-10T04:35:57.285Z,13.43
2023-05-10T04:36:28.677Z,11.48
2023-05-10T04:37:00.103Z,12.27
2023-05-10T04:37:31.466Z,12.27
2023-05-10T04:38:02.936Z,11.30
2023-05-10T04:38:34.403Z,7.07
2023-05-10T04:39:05.781Z,7.13
2023-05-10T04:39:37.182Z,7.70
2023-05-10T04:40:08.947Z,8.10
2023-05-10T04:40:42.345Z,9.18
2023-05-10T04:41:13.692Z,7.90
2023-05-10T04:41:45.067Z,10.18
2023-05-10T04:42:16.410Z,6.72
2023-05-10T04:42:47.800Z,5.43
2023-05-10T04:43:19.273Z,6.57
2023-05-10T04:43:50.609Z,10.60
2023-05-10T04:44:22.022Z,10.75
2023-05-10T04:44:53.358Z,11.37
2023-05-10T04:45:27.560Z,16.42
2023-05-10T04:45:59.061Z,12.02
2023-05-10T04:46:30.544Z,11.20
2023-05-10T04:47:02.059Z,14.07
2023-05-10T04:47:33.506Z,9.02
2023-05-10T04:48:05.250Z,5.82
2023-05-10T04:48:36.688Z,11.20
2023-05-10T04:49:08.078Z,9.70
2023-05-10T04:49:39.474Z,7.82
2023-05-10T04:50:10.839Z,7.57
2023-05-10T04:50:42.228Z,13.05
2023-05-10T04:51:13.651Z,7.65
2023-05-10T04:51:45.009Z,8.23
2023-05-10T04:52:16.435Z,10.98
2023-05-10T04:52:47.888Z,15.02
2023-05-10T04:53:19.334Z,10.75
2023-05-10T04:54:01.652Z,10.43
2023-05-10T04:54:36.387Z,8.23
2023-05-10T04:55:07.920Z,10.07
2023-05-10T04:55:39.301Z,13.15
2023-05-10T04:56:10.772Z,17.88
2023-05-10T04:56:42.150Z,15.73
2023-05-10T04:57:13.561Z,9.57
2023-05-10T04:57:44.944Z,11.18
2023-05-10T04:58:16.379Z,15.80
2023-05-10T04:58:47.752Z,13.00
2023-05-10T04:59:19.701Z,9.70
2023-05-10T04:59:51.115Z,15.00
2023-05-10T05:00:22.485Z,10.88
2023-05-10T05:00:53.908Z,21.17
2023-05-10T05:01:25.333Z,18.77
2023-05-10T05:01:56.744Z,9.90
2023-05-10T05:02:28.306Z,10.98
2023-05-10T05:02:59.850Z,14.30
2023-05-10T05:03:31.359Z,11.98
2023-05-10T05:04:02.767Z,10.82
2023-05-10T05:04:34.112Z,12.60
2023-05-10T05:05:05.702Z,13.85
2023-05-10T05:05:37.114Z,13.55
2023-05-10T05:06:08.549Z,10.32
2023-05-10T05:06:39.898Z,8.00
2023-05-10T05:07:11.280Z,11.10
2023-05-10T05:07:42.635Z,9.85
2023-05-10T05:08:13.998Z,8.57
2023-05-10T05:08:45.461Z,10.90
2023-05-10T05:09:16.832Z,10.18
2023-05-10T05:09:48.215Z,9.95
2023-05-10T05:10:19.854Z,14.93
2023-05-10T05:10:51.488Z,18.70
2023-05-10T05:11:22.913Z,11.77
2023-05-10T05:11:54.351Z,10.80
2023-05-10T05:12:25.769Z,15.88
2023-05-10T05:12:57.170Z,21.85
2023-05-10T05:13:28.924Z,27.00
2023-05-10T05:14:00.385Z,46.00
2023-05-10T05:14:31.810Z,33.63
2023-05-10T05:15:03.411Z,25.85
2023-05-10T05:15:34.767Z,19.35
2023-05-10T05:16:06.365Z,15.48
2023-05-10T05:16:37.909Z,12.30
2023-05-10T05:17:09.295Z,17.73
2023-05-10T05:17:40.703Z,14.00
2023-05-10T05:18:12.193Z,7.65
2023-05-10T05:18:43.596Z,9.25
2023-05-10T05:19:14.985Z,20.15
2023-05-10T05:19:46.535Z,13.77
2023-05-10T05:20:18.265Z,9.70
2023-05-10T05:20:49.830Z,13.93
2023-05-10T05:21:21.245Z,9.73
2023-05-10T05:21:52.617Z,8.85
2023-05-10T05:22:24.013Z,9.07
2023-05-10T05:22:55.419Z,38.35
2023-05-10T05:23:26.778Z,22.38
2023-05-10T05:23:58.344Z,14.45
2023-05-10T05:24:29.726Z,10.90
2023-05-10T05:25:01.096Z,11.85
2023-05-10T05:25:32.496Z,13.40
2023-05-10T05:26:03.866Z,11.02
2023-05-10T05:26:35.301Z,15.20
2023-05-10T05:27:07.037Z,9.40
2023-05-10T05:27:38.477Z,10.43
2023-05-10T05:28:09.862Z,6.97
2023-05-10T05:28:41.259Z,12.07
2023-05-10T05:29:12.668Z,10.00
2023-05-10T05:29:44.032Z,10.75
2023-05-10T05:30:15.763Z,10.38
2023-05-10T05:30:47.438Z,7.55
2023-05-10T05:31:18.863Z,10.25
2023-05-10T05:31:50.319Z,12.23
2023-05-10T05:32:21.821Z,13.90
2023-05-10T05:32:53.358Z,15.13
2023-05-10T05:33:24.775Z,7.43
2023-05-10T05:33:56.167Z,15.80
2023-05-10T05:34:27.622Z,6.55
2023-05-10T05:34:58.985Z,9.85
2023-05-10T05:35:30.356Z,11.00
2023-05-10T05:36:02.532Z,11.00
2023-05-10T05:36:37.608Z,13.25
2023-05-10T05:37:13.149Z,7.28
2023-05-10T05:37:44.534Z,10.40
2023-05-10T05:38:15.919Z,7.07
2023-05-10T05:38:47.312Z,9.23
2023-05-10T05:39:18.719Z,8.68
2023-05-10T05:39:50.092Z,19.00
2023-05-10T05:40:21.450Z,19.97
2023-05-10T05:40:52.846Z,19.70
2023-05-10T05:41:24.249Z,10.23
2023-05-10T05:41:55.660Z,9.32
2023-05-10T05:42:27.027Z,7.30
2023-05-10T05:42:58.430Z,5.05
2023-05-10T05:43:29.784Z,8.68
2023-05-10T05:44:01.156Z,9.75
2023-05-10T05:44:32.545Z,12.48
2023-05-10T05:45:04.022Z,9.63
2023-05-10T05:45:35.581Z,7.80
2023-05-10T05:46:07.083Z,17.13
2023-05-10T05:46:38.488Z,25.40
2023-05-10T05:47:10.062Z,21.13
2023-05-10T05:47:41.685Z,11.55
2023-05-10T05:48:13.105Z,8.23
2023-05-10T05:48:44.464Z,13.25
2023-05-10T05:49:15.820Z,14.52
2023-05-10T05:49:47.183Z,12.03
2023-05-10T05:50:18.541Z,8.32
2023-05-10T05:50:49.942Z,6.45
2023-05-10T05:51:21.350Z,9.02
2023-05-10T05:51:52.727Z,15.30
2023-05-10T05:52:24.338Z,22.40
2023-05-10T05:52:55.741Z,20.77
2023-05-10T05:53:27.155Z,15.75
2023-05-10T05:53:58.522Z,15.27
2023-05-10T05:54:29.922Z,10.20
2023-05-10T05:55:01.323Z,9.90
2023-05-10T05:55:32.763Z,8.50
2023-05-10T05:56:04.313Z,24.88
2023-05-10T05:56:35.678Z,14.05
2023-05-10T05:57:07.033Z,20.97
2023-05-10T05:57:38.497Z,26.52
2023-05-10T05:58:10.169Z,18.65
2023-05-10T05:58:41.563Z,9.60
2023-05-10T05:59:13.064Z,8.65
2023-05-10T05:59:44.534Z,11.50
2023-05-10T06:00:16.084Z,13.35
2023-05-10T06:00:47.509Z,10.47
2023-05-10T06:01:18.953Z,14.63
2023-05-10T06:01:50.673Z,13.23
2023-05-10T06:02:22.184Z,13.57
2023-05-10T06:02:53.662Z,16.75
2023-05-10T06:03:25.285Z,10.90
2023-05-10T06:03:56.762Z,9.87
2023-05-10T06:04:28.264Z,10.18
2023-05-10T06:04:59.723Z,12.55
2023-05-10T06:05:31.110Z,11.70
2023-05-10T06:06:02.585Z,5.72
2023-05-10T06:06:33.980Z,9.75
2023-05-10T06:07:05.396Z,7.78
2023-05-10T06:07:36.785Z,11.40
2023-05-10T06:08:08.194Z,12.45
2023-05-10T06:08:39.714Z,10.23
2023-05-10T06:09:11.430Z,15.45
2023-05-10T06:09:42.787Z,9.10
2023-05-10T06:10:14.189Z,10.90
2023-05-10T06:10:45.718Z,15.77
2023-05-10T06:11:17.136Z,31.90
2023-05-10T06:11:48.480Z,24.88
2023-05-10T06:12:19.886Z,24.35
2023-05-10T06:12:51.308Z,14.05
2023-05-10T06:13:22.825Z,8.05
2023-05-10T06:13:54.176Z,13.15
2023-05-10T06:14:25.544Z,10.70
2023-05-10T06:14:56.973Z,9.35
2023-05-10T06:15:28.571Z,7.82
2023-05-10T06:16:00.047Z,12.63
2023-05-10T06:16:32.074Z,17.27
2023-05-10T06:17:03.491Z,8.07
2023-05-10T06:17:34.921Z,11.82
2023-05-10T06:18:06.447Z,12.15
2023-05-10T06:18:37.791Z,13.82
2023-05-10T06:19:09.172Z,12.43
2023-05-10T06:19:40.516Z,10.60
2023-05-10T06:20:12.246Z,9.25
2023-05-10T06:20:43.627Z,9.52
2023-05-10T06:21:15.117Z,10.27
2023-05-10T06:21:46.467Z,9.35
2023-05-10T06:22:17.828Z,8.67
2023-05-10T06:22:49.189Z,8.57
2023-05-10T06:23:20.566Z,9.73
2023-05-10T06:23:51.931Z,11.93
2023-05-10T06:24:23.276Z,9.32
2023-05-10T06:24:54.645Z,6.47
2023-05-10T06:25:26.098Z,11.95
2023-05-10T06:25:57.482Z,7.43
2023-05-10T06:26:28.824Z,5.80
2023-05-10T06:27:00.211Z,11.65
2023-05-10T06:27:31.577Z,10.63
2023-05-10T06:28:02.970Z,11.35
2023-05-10T06:28:34.365Z,7.77
2023-05-10T06:29:05.740Z,10.23
2023-05-10T06:29:37.163Z,11.80
2023-05-10T06:30:12.844Z,11.63
2023-05-10T06:30:44.591Z,7.78
2023-05-10T06:31:15.989Z,11.10
2023-05-10T06:31:47.452Z,13.35
2023-05-10T06:32:18.882Z,12.02
2023-05-10T06:32:50.367Z,8.98
2023-05-10T06:33:21.822Z,11.40
2023-05-10T06:33:54.763Z,9.48
2023-05-10T06:34:28.001Z,6.75
2023-05-10T06:34:59.405Z,10.88
2023-05-10T06:35:30.779Z,8.38
2023-05-10T06:36:02.131Z,11.73
2023-05-10T06:36:33.475Z,10.85
2023-05-10T06:37:04.833Z,18.30
2023-05-10T06:37:36.218Z,15.05
2023-05-10T06:38:07.621Z,8.90
2023-05-10T06:38:38.987Z,8.82
2023-05-10T06:39:10.390Z,8.38
2023-05-10T06:39:41.823Z,10.73
2023-05-10T06:40:13.255Z,7.13
2023-05-10T06:40:44.654Z,6.38
2023-05-10T06:41:15.985Z,8.40
2023-05-10T06:41:47.364Z,8.82
2023-05-10T06:42:18.846Z,9.55
2023-05-10T06:42:50.397Z,8.82
2023-05-10T06:43:21.816Z,11.50
2023-05-10T06:43:53.220Z,8.35
2023-05-10T06:44:24.583Z,11.07
2023-05-10T06:44:55.927Z,11.48
2023-05-10T06:45:27.326Z,10.68
2023-05-10T06:45:58.730Z,6.30
2023-05-10T06:46:30.180Z,13.93
2023-05-10T06:47:01.612Z,6.55
2023-05-10T06:47:33.050Z,8.50
2023-05-10T06:48:04.703Z,8.25
2023-05-10T06:48:36.140Z,9.93
2023-05-10T06:49:07.530Z,8.32
2023-05-10T06:49:38.910Z,7.80
2023-05-10T06:50:10.773Z,7.45
2023-05-10T06:50:42.171Z,10.18
2023-05-10T06:51:13.610Z,15.27
2023-05-10T06:51:45.003Z,11.30
2023-05-10T06:52:16.368Z,7.60
2023-05-10T06:52:47.787Z,8.32
2023-05-10T06:53:19.143Z,4.88
2023-05-10T06:53:50.499Z,6.88
2023-05-10T06:54:21.848Z,8.05
2023-05-10T06:54:53.215Z,9.43
2023-05-10T06:55:24.655Z,8.75
2023-05-10T06:55:56.053Z,11.93
2023-05-10T06:56:27.405Z,9.55
2023-05-10T06:56:58.770Z,9.38
2023-05-10T06:57:32.005Z,4.32
2023-05-10T06:58:03.700Z,8.23
2023-05-10T06:58:35.134Z,7.15
2023-05-10T06:59:06.566Z,8.88
2023-05-10T06:59:38.052Z,6.10
2023-05-10T07:00:09.564Z,4.97
2023-05-10T07:00:40.981Z,7.97
2023-05-10T07:01:12.436Z,5.97
2023-05-10T07:01:43.936Z,9.00
2023-05-10T07:02:15.345Z,7.97
2023-05-10T07:02:47.172Z,6.00
2023-05-10T07:03:18.631Z,6.38
2023-05-10T07:03:50.005Z,6.00
2023-05-10T07:04:21.679Z,9.18
2023-05-10T07:04:53.226Z,7.22
2023-05-10T07:05:24.738Z,7.45
2023-05-10T07:06:00.698Z,8.55
2023-05-10T07:06:34.707Z,7.15
2023-05-10T07:07:06.090Z,8.20